| time (UTC) | temp F | wind direction | speed knots | gust knots | rain 1hr in | rain 24hr in | rain mn in | humidity % | barometer mb |
| 20260508014055 | 40 | 0.0 | 0.0 | 0.00 | 0.00 | 0.00 | 97 | 1013.2 | |
| 20260508013029 | 40 | 0.0 | 0.0 | 0.00 | 0.00 | 0.00 | 97 | 1013.4 | |
| 20260508012039 | 40 | 0.0 | 0.0 | 0.00 | 0.00 | 0.00 | 97 | 1013.2 | |
| 20260508011042 | 40 | 0.0 | 0.0 | 0.00 | 0.00 | 0.00 | 97 | 1013.3 | |
| 20260508010018 | 40 | 0.0 | 0.0 | 0.00 | 0.00 | 0.00 | 97 | 1013.4 | |
| 20260508005026 | 40 | 0.0 | 0.0 | 0.00 | 0.00 | 0.00 | 97 | 1013.4 | |
| 20260508004100 | 40 | 0.0 | 0.0 | 0.00 | 0.00 | 0.00 | 96 | 1013.3 | |
| 20260508003027 | 40 | 0.0 | 0.0 | 0.00 | 0.00 | 0.00 | 96 | 1013.5 | |
| 20260508002034 | 41 | 0.0 | 0.0 | 0.00 | 0.00 | 0.00 | 96 | 1013.6 | |
| 20260508001027 | 41 | 0.0 | 0.0 | 0.00 | 0.00 | 0.00 | 96 | 1013.5 | |
| 20260508000038 | 41 | 0.0 | 0.0 | 0.00 | 0.00 | 0.00 | 96 | 1013.7 | |
| 20260507235043 | 42 | 0.0 | 0.0 | 0.00 | 0.00 | 0.00 | 95 | 1013.7 | |
| 20260507234018 | 42 | 0.0 | 0.0 | 0.00 | 0.00 | 0.00 | 95 | 1013.8 | |
| 20260507233025 | 43 | 0.0 | 0.0 | 0.00 | 0.00 | 0.00 | 95 | 1013.7 | |
| 20260507232035 | 42 | 0.0 | 0.0 | 0.00 | 0.00 | 0.00 | 95 | 1013.6 | |
| 20260507231034 | 43 | 0.0 | 0.0 | 0.00 | 0.00 | 0.00 | 94 | 1014.0 | |
| 20260507230018 | 43 | 0.0 | 0.0 | 0.00 | 0.00 | 0.00 | 94 | 1013.9 | |
| 20260507225049 | 44 | 0.0 | 0.0 | 0.00 | 0.00 | 0.00 | 94 | 1013.8 | |
| 20260507224018 | 45 | 0.0 | 0.0 | 0.00 | 0.00 | 0.00 | 94 | 1014.1 | |
| 20260507223041 | 45 | 0.0 | 0.0 | 0.00 | 0.00 | 0.00 | 93 | 1013.9 | |
| 20260507222019 | 45 | 0.0 | 0.0 | 0.00 | 0.00 | 0.00 | 93 | 1014.0 | |
| 20260507221026 | 45 | 0.0 | 0.0 | 0.00 | 0.00 | 0.00 | 92 | 1013.9 | |
| 20260507220020 | 45 | 0.0 | 0.0 | 0.00 | 0.00 | 0.00 | 92 | 1013.9 | |
| 20260507215026 | 45 | 0.0 | 0.0 | 0.00 | 0.00 | 0.00 | 91 | 1014.2 | |
| 20260507214035 | 46 | 0.0 | 0.0 | 0.00 | 0.00 | 0.00 | 90 | 1014.3 | |
| 20260507213027 | 46 | 0.0 | 0.0 | 0.00 | 0.00 | 0.00 | 89 | 1014.2 | |
| 20260507212019 | 47 | 0.0 | 0.0 | 0.00 | 0.00 | 0.00 | 88 | 1014.3 | |
| 20260507211043 | 47 | 0.0 | 0.0 | 0.00 | 0.00 | 0.00 | 87 | 1014.2 | |
| 20260507210019 | 48 | 0.0 | 0.0 | 0.00 | 0.00 | 0.00 | 86 | 1014.1 | |
| 20260507205025 | 49 | 0.0 | 0.0 | 0.00 | 0.00 | 0.00 | 86 | 1013.9 | |
| 20260507204019 | 49 | 0.0 | 0.0 | 0.00 | 0.00 | 0.00 | 85 | 1014.0 | |
| 20260507203047 | 49 | 0.0 | 0.0 | 0.00 | 0.00 | 0.00 | 84 | 1013.9 | |
| 20260507202034 | 50 | 0.0 | 0.0 | 0.00 | 0.00 | 0.00 | 83 | 1013.9 | |
| 20260507201029 | 51 | 0.0 | 0.0 | 0.00 | 0.00 | 0.00 | 80 | 1013.6 | |
| 20260507200017 | 52 | 0.0 | 0.0 | 0.00 | 0.00 | 0.00 | 77 | 1013.4 | |
| 20260507195041 | 53 | 0.0 | 0.0 | 0.00 | 0.00 | 0.00 | 75 | 1013.4 | |
| 20260507194020 | 53 | 136 | 0.0 | 0.9 | 0.00 | 0.00 | 0.00 | 75 | 1013.3 |
| 20260507193026 | 54 | 0.0 | 0.0 | 0.00 | 0.00 | 0.00 | 74 | 1013.0 | |
| 20260507192020 | 54 | 137 | 0.9 | 1.7 | 0.00 | 0.00 | 0.00 | 74 | 1013.0 |
| 20260507191028 | 54 | 138 | 0.0 | 1.7 | 0.00 | 0.00 | 0.00 | 73 | 1013.0 |
| 20260507190033 | 55 | 131 | 0.9 | 1.7 | 0.00 | 0.00 | 0.00 | 72 | 1013.2 |
| 20260507185049 | 55 | 129 | 0.9 | 1.7 | 0.00 | 0.00 | 0.00 | 72 | 1012.8 |
| 20260507184019 | 55 | 122 | 0.9 | 1.7 | 0.00 | 0.00 | 0.00 | 71 | 1012.9 |
| 20260507182019 | 55 | 115 | 0.9 | 2.6 | 0.00 | 0.00 | 0.00 | 70 | 1013.0 |
| 20260507181027 | 56 | 123 | 1.7 | 3.5 | 0.00 | 0.00 | 0.00 | 70 | 1012.9 |
| 20260507180019 | 56 | 159 | 1.7 | 2.6 | 0.00 | 0.00 | 0.00 | 69 | 1012.8 |
| 20260507175026 | 56 | 181 | 1.7 | 5.2 | 0.00 | 0.00 | 0.00 | 68 | 1012.9 |
| 20260507174055 | 56 | 167 | 3.5 | 6.1 | 0.00 | 0.00 | 0.00 | 69 | 1012.9 |
| 20260507173049 | 56 | 157 | 2.6 | 5.2 | 0.00 | 0.00 | 0.00 | 68 | 1012.9 |
| 20260507172018 | 56 | 165 | 4.3 | 7.8 | 0.00 | 0.00 | 0.00 | 67 | 1012.8 |
| 20260507171042 | 57 | 149 | 3.5 | 7.8 | 0.00 | 0.00 | 0.00 | 68 | 1013.1 |
| 20260507170033 | 57 | 176 | 4.3 | 8.7 | 0.00 | 0.00 | 0.00 | 67 | 1012.9 |
| 20260507165028 | 58 | 146 | 4.3 | 7.8 | 0.00 | 0.00 | 0.00 | 66 | 1013.1 |
| 20260507164017 | 58 | 141 | 2.6 | 8.7 | 0.00 | 0.00 | 0.00 | 64 | 1013.1 |
| 20260507163028 | 58 | 136 | 3.5 | 8.7 | 0.00 | 0.00 | 0.00 | 65 | 1012.8 |
| 20260507162115 | 58 | 162 | 2.6 | 6.1 | 0.00 | 0.00 | 0.00 | 65 | 1012.9 |
| 20260507161029 | 58 | 188 | 3.5 | 7.0 | 0.00 | 0.00 | 0.00 | 65 | 1012.8 |
| 20260507160138 | 58 | 155 | 2.6 | 3.5 | 0.00 | 0.00 | 0.00 | 65 | 1013.0 |
| 20260507155044 | 57 | 182 | 2.6 | 5.2 | 0.00 | 0.00 | 0.00 | 66 | 1012.9 |
| 20260507154019 | 57 | 198 | 1.7 | 3.5 | 0.00 | 0.00 | 0.00 | 67 | 1012.9 |
| 20260507153026 | 57 | 207 | 2.6 | 3.5 | 0.00 | 0.00 | 0.00 | 68 | 1012.9 |
| 20260507152022 | 56 | 213 | 2.6 | 3.5 | 0.00 | 0.00 | 0.00 | 67 | 1013.0 |
| 20260507151027 | 56 | 231 | 3.5 | 7.0 | 0.00 | 0.00 | 0.00 | 68 | 1013.0 |
| 20260507150035 | 56 | 223 | 3.5 | 7.8 | 0.00 | 0.00 | 0.00 | 68 | 1013.1 |
| 20260507145047 | 56 | 224 | 4.3 | 9.6 | 0.00 | 0.00 | 0.00 | 68 | 1013.2 |
| 20260507144019 | 57 | 212 | 4.3 | 7.8 | 0.00 | 0.00 | 0.00 | 64 | 1013.1 |
| 20260507143042 | 58 | 149 | 2.6 | 6.1 | 0.00 | 0.00 | 0.00 | 57 | 1013.2 |
| 20260507142019 | 58 | 175 | 3.5 | 6.1 | 0.00 | 0.00 | 0.00 | 57 | 1013.2 |
| 20260507141025 | 59 | 156 | 2.6 | 6.1 | 0.00 | 0.00 | 0.00 | 55 | 1012.9 |
| 20260507140020 | 60 | 124 | 3.5 | 6.1 | 0.00 | 0.00 | 0.00 | 52 | 1013.0 |
| 20260507135026 | 59 | 140 | 0.9 | 3.5 | 0.00 | 0.00 | 0.00 | 48 | 1013.1 |
| 20260507134033 | 60 | 58 | 0.9 | 1.7 | 0.00 | 0.00 | 0.00 | 45 | 1013.0 |
| 20260507133030 | 60 | 235 | 0.0 | 2.6 | 0.00 | 0.00 | 0.00 | 44 | 1012.8 |
| 20260507132018 | 59 | 296 | 0.0 | 1.7 | 0.00 | 0.00 | 0.00 | 47 | 1013.0 |
| 20260507131041 | 59 | 355 | 0.9 | 2.6 | 0.00 | 0.00 | 0.00 | 47 | 1013.1 |
| 20260507130018 | 59 | 338 | 0.9 | 3.5 | 0.00 | 0.00 | 0.00 | 48 | 1013.1 |
| 20260507125025 | 59 | 28 | 0.9 | 2.6 | 0.00 | 0.00 | 0.00 | 48 | 1013.1 |
| 20260507124040 | 59 | 1 | 1.7 | 3.5 | 0.00 | 0.00 | 0.00 | 48 | 1013.1 |
| 20260507123047 | 59 | 94 | 0.9 | 3.5 | 0.00 | 0.00 | 0.00 | 49 | 1013.3 |
| 20260507122034 | 59 | 39 | 2.6 | 5.2 | 0.00 | 0.00 | 0.00 | 50 | 1013.3 |
| 20260507121028 | 59 | 35 | 2.6 | 6.1 | 0.00 | 0.00 | 0.00 | 52 | 1013.3 |
| 20260507120019 | 59 | 62 | 2.6 | 5.2 | 0.00 | 0.00 | 0.00 | 52 | 1013.6 |
| 20260507115043 | 60 | 73 | 2.6 | 6.1 | 0.00 | 0.00 | 0.00 | 53 | 1013.6 |
| 20260507114018 | 60 | 81 | 2.6 | 7.0 | 0.00 | 0.00 | 0.00 | 53 | 1013.6 |
| 20260507113025 | 59 | 81 | 3.5 | 6.1 | 0.00 | 0.00 | 0.00 | 55 | 1013.6 |
| 20260507112019 | 58 | 60 | 1.7 | 6.1 | 0.00 | 0.00 | 0.00 | 56 | 1013.6 |
| 20260507111026 | 58 | 85 | 1.7 | 5.2 | 0.00 | 0.00 | 0.00 | 54 | 1013.5 |
| 20260507110034 | 58 | 88 | 2.6 | 6.1 | 0.00 | 0.00 | 0.00 | 52 | 1013.7 |
| 20260507105042 | 57 | 336 | 0.9 | 2.6 | 0.00 | 0.00 | 0.00 | 51 | 1013.7 |
| 20260507104018 | 57 | 245 | 1.7 | 2.6 | 0.00 | 0.00 | 0.00 | 52 | 1013.7 |
| 20260507103051 | 57 | 115 | 0.9 | 2.6 | 0.00 | 0.00 | 0.00 | 49 | 1013.7 |
| 20260507102018 | 57 | 186 | 1.7 | 3.5 | 0.00 | 0.00 | 0.00 | 49 | 1013.8 |
| 20260507101026 | 59 | 176 | 1.7 | 3.5 | 0.00 | 0.00 | 0.00 | 48 | 1013.7 |
| 20260507100019 | 59 | 112 | 0.9 | 2.6 | 0.00 | 0.00 | 0.00 | 49 | 1013.8 |
| 20260507095028 | 57 | 107 | 1.7 | 2.6 | 0.00 | 0.00 | 0.00 | 48 | 1014.0 |
| 20260507094035 | 55 | 250 | 1.7 | 2.6 | 0.00 | 0.00 | 0.00 | 55 | 1014.0 |
| 20260507093050 | 55 | 276 | 0.9 | 5.2 | 0.00 | 0.00 | 0.00 | 62 | 1013.8 |
| 20260507092017 | 55 | 264 | 3.5 | 5.2 | 0.00 | 0.00 | 0.00 | 64 | 1013.8 |
| 20260507091041 | 58 | 203 | 2.6 | 6.1 | 0.00 | 0.00 | 0.00 | 61 | 1013.8 |
| 20260507090019 | 57 | 153 | 1.7 | 3.5 | 0.00 | 0.00 | 0.00 | 62 | 1013.7 |
| 20260507085025 | 56 | 162 | 1.7 | 3.5 | 0.00 | 0.00 | 0.00 | 67 | 1014.0 |
| 20260507084021 | 55 | 174 | 0.9 | 3.5 | 0.00 | 0.00 | 0.00 | 69 | 1013.9 |
| 20260507083051 | 55 | 98 | 1.7 | 5.2 | 0.00 | 0.00 | 0.00 | 72 | 1013.9 |
| 20260507082033 | 55 | 92 | 0.9 | 2.6 | 0.00 | 0.00 | 0.00 | 74 | 1013.9 |
| 20260507081028 | 54 | 139 | 2.6 | 5.2 | 0.00 | 0.00 | 0.00 | 76 | 1013.7 |
| 20260507080038 | 54 | 84 | 1.7 | 3.5 | 0.00 | 0.00 | 0.00 | 77 | 1013.6 |
| 20260507075041 | 52 | 123 | 2.6 | 5.2 | 0.00 | 0.00 | 0.00 | 80 | 1013.5 |
| 20260507074018 | 52 | 48 | 0.9 | 2.6 | 0.00 | 0.00 | 0.00 | 84 | 1013.4 |
| 20260507073025 | 50 | 58 | 0.9 | 1.7 | 0.00 | 0.00 | 0.00 | 84 | 1013.4 |
| 20260507072021 | 50 | 82 | 0.9 | 1.7 | 0.00 | 0.00 | 0.00 | 84 | 1013.6 |
| 20260507071026 | 49 | 105 | 0.9 | 1.7 | 0.00 | 0.00 | 0.00 | 85 | 1013.5 |
| 20260507070034 | 48 | 115 | 0.0 | 0.9 | 0.00 | 0.00 | 0.00 | 86 | 1013.5 |
| 20260507065029 | 46 | 0.0 | 0.0 | 0.00 | 0.00 | 0.00 | 89 | 1013.3 | |
| 20260507064022 | 45 | 0.0 | 0.0 | 0.00 | 0.00 | 0.00 | 92 | 1013.4 | |
| 20260507063043 | 43 | 216 | 0.0 | 0.9 | 0.00 | 0.00 | 0.00 | 94 | 1013.2 |
| 20260507062018 | 42 | 216 | 0.0 | 1.7 | 0.00 | 0.00 | 0.00 | 95 | 1013.2 |
| 20260507061045 | 42 | 216 | 0.9 | 1.7 | 0.00 | 0.00 | 0.00 | 95 | 1013.4 |
| 20260507060019 | 41 | 217 | 0.9 | 1.7 | 0.00 | 0.00 | 0.00 | 96 | 1013.2 |
| 20260507055028 | 40 | 208 | 0.9 | 1.7 | 0.00 | 0.00 | 0.00 | 96 | 1013.1 |
| 20260507054033 | 40 | 0.0 | 0.0 | 0.00 | 0.00 | 0.00 | 96 | 1013.0 | |
| 20260507053029 | 39 | 0.0 | 0.0 | 0.00 | 0.00 | 0.00 | 96 | 1012.9 | |
| 20260507052019 | 39 | 0.0 | 0.0 | 0.00 | 0.00 | 0.00 | 96 | 1012.9 | |
| 20260507051041 | 39 | 0.0 | 0.0 | 0.00 | 0.00 | 0.00 | 96 | 1012.9 | |
| 20260507050018 | 38 | 0.0 | 0.0 | 0.00 | 0.00 | 0.00 | 97 | 1012.7 | |
| 20260507045029 | 38 | 0.0 | 0.0 | 0.00 | 0.00 | 0.00 | 96 | 1012.8 | |
| 20260507044023 | 38 | 206 | 0.0 | 0.9 | 0.00 | 0.00 | 0.00 | 96 | 1012.8 |
| 20260507043042 | 38 | 205 | 0.9 | 1.7 | 0.00 | 0.00 | 0.00 | 96 | 1012.8 |
| 20260507042021 | 39 | 206 | 0.9 | 1.7 | 0.00 | 0.00 | 0.00 | 96 | 1012.8 |
| 20260507041025 | 39 | 194 | 0.9 | 1.7 | 0.00 | 0.00 | 0.00 | 96 | 1012.7 |
| 20260507040018 | 39 | 0.0 | 0.0 | 0.00 | 0.00 | 0.00 | 96 | 1012.8 | |
| 20260507035041 | 39 | 0.0 | 0.0 | 0.00 | 0.00 | 0.00 | 96 | 1012.8 | |
| 20260507034021 | 40 | 165 | 0.0 | 0.9 | 0.00 | 0.00 | 0.00 | 96 | 1012.9 |
| 20260507033025 | 39 | 161 | 0.0 | 1.7 | 0.00 | 0.00 | 0.00 | 96 | 1012.8 |
| 20260507032023 | 39 | 0.0 | 0.0 | 0.00 | 0.00 | 0.00 | 96 | 1012.7 | |
| 20260507031027 | 40 | 0.0 | 0.0 | 0.00 | 0.00 | 0.00 | 96 | 1012.7 | |
| 20260507030033 | 40 | 0.0 | 0.0 | 0.00 | 0.00 | 0.00 | 96 | 1012.8 | |
| 20260507025029 | 40 | 0.0 | 0.0 | 0.00 | 0.00 | 0.00 | 95 | 1012.7 | |
| 20260507024018 | 41 | 0.0 | 0.0 | 0.00 | 0.00 | 0.00 | 95 | 1012.6 | |
| 20260507023042 | 41 | 0.0 | 0.0 | 0.00 | 0.00 | 0.00 | 95 | 1012.6 | |
| 20260507022023 | 41 | 0.0 | 0.0 | 0.00 | 0.00 | 0.00 | 95 | 1012.8 | |
| 20260507021028 | 42 | 0.0 | 0.0 | 0.00 | 0.00 | 0.00 | 94 | 1012.5 | |
| 20260507020022 | 42 | 0.0 | 0.0 | 0.00 | 0.00 | 0.00 | 94 | 1012.5 | |
| 20260507015028 | 42 | 0.0 | 0.0 | 0.00 | 0.00 | 0.00 | 94 | 1012.5 |